Terminal Aerodrome Forecast
Issued by NWS Twin Cities, MN

Home | Current Version | Previous Version | Text Only | Print | Product List | Glossary On
Versions: 1 2 3 4 5 6 7 8 9 10 11 12 13 14 15 16
000
FTUS43 KMPX 251738
TAFEAU
TAF
KEAU 251738Z 2518/2618 13005KT P6SM SCT030 BKN050
     FM260000 16007KT P6SM BKN050
     FM260600 VRB03KT P6SM VCSH BKN060
     FM261400 16008KT P6SM BKN080=

USA.gov is the U.S. government's official web portal to all federal, state and local government web resources and services.